Milan Linate, Italy

3:58 PM CEST on September 20, 2014 (GMT +0200)
Peschiera Borromeo - Bellaria (Mi) | Change Station
CLOSE
Current Station
Personal Weather Station
Location: Peschiera Borromeo,
Elevation: 318 ft
Nearby Weather Stations

Elev 318 ft 45.42 °N, 9.31 °E | Updated 14 minutes ago

Scattered Clouds
Scattered Clouds
72.9 °F
Feels Like 73 °F
N
1.0
Wind Variable Wind from SSW
Gusts 3.0 mph

Today
High -- | Low -- °F
--% Chance of Precip.
Yesterday
High -- | Low -- °F
Precip. -- in
7:07 AM 7:24 PM
Waning Crescent, 12% visible
Pressure 30.01 in
Visibility 6.2 miles
Clouds Scattered Clouds 1500 ft
Scattered Clouds 3000 ft
Heat Index 73 °F
Dew Point 66 °F
Humidity 80%
Rainfall 0.01 in
Snow Depth Not available.
UV 3 out of 12
Pollen Not available.
Air Quality Not available.
Flu Activity Not available.
METAR LIML 201350Z VRB01KT 9999 SCT015 SCT030 23/17 Q1016 NOSIG

More Conditions Fewer Conditions

Pressure 30.01 in
Visibility 6.2 miles
Clouds Scattered Clouds 1500 ft
Scattered Clouds 3000 ft
Heat Index 73 °F
Dew Point 66 °F
Humidity 80%
Rainfall 0.01 in
Snow Depth Not available.
UV 3 out of 12
Pollen Not available.
Air Quality Not available.
Flu Activity Not available.
METAR LIML 201350Z VRB01KT 9999 SCT015 SCT030 23/17 Q1016 NOSIG

More Conditions Fewer Conditions

10-Day Weather Forecast

Almanac

Astronomy

Sep. 20, 2014 Rise Set
Actual Time 7:07 AM CEST 7:24 PM CEST
Civil Twilight 6:37 AM CEST 7:54 PM CEST
Nautical Twilight 6:02 AM CEST 8:29 PM CEST
Astronomical Twilight 5:26 AM CEST 9:04 PM CEST
Moon 3:22 AM CEST 5:26 PM CEST
Length of Visible Light 13h 16m
Length of Day
12h 17m
Tomorrow will be 3m 9s shorter.
Waning Crescent, 12% of the Moon is Illuminated
Today
Waning Crescent
Sep 24
New
Oct 1
First Quarter
Oct 8
Full
Oct 15
Last Quarter

Yesterday's Extremes

Country Highs Country Lows

Community

WunderPhotos

Upload Photos

1,754,858 photos uploaded!

Nearby

Snow Depth

Not available.

Earthquake Activity

City Distance Mag. Time & Date
No recent earthquake activity has been reported nearby.
Minimum magnitude displayed is 2.5.

Coastal Water Temperatures

Place Temperature
No Stations Reporting

Nearby Weather Stations